SWR92 LSZH-SBGR
Flight info
| Callsign | SWR92 |
|---|---|
| Flight time | N/A |
| Altitude | 29000 |
| Route | VEBIT T50 ROTOS Z669 ULMES DCT VADAR DCT GEVEA DCT INCUS DCT BALSI DCT RETNO DCT TUPOX DCT MTG DCT DIVKO DCT VATIR DCT PIVUS DCT SULID DCT SISMO DCT KENAS DCT POS DCT LULAK DCT MJV DCT ASMOT DCT OLMIR DCT SADAF UA29 CHE/N0488F300 UA29 TRB UM986 BRENA UA854 EBATI/N0497F320 UA854 ARDAR UR975 ANITI UA302 TURUP DCT GANDO DCT ERETU/N0495F340 UN857 UTRAM DCT IREKI UZ21 VUNOX |
| Aircraft | B77W/H-SDE1E2E3FGHIJ2J3J4J5M1RWXY/LB1D1 |
Departure
| Time | 2026-02-21 22:11 |
|---|---|
| Airport | Zürich Airport (LSZH) |
Arrival
| Time | N/A |
|---|---|
| Airport | São Paulo/Guarulhos–Governor André Franco Montoro International Airport (SBGR) |
| Time | Latitude | Longitude | Altitude | Speed | Heading |
|---|---|---|---|---|---|
| 2026-02-21 21:42 | 47.46174 | 8.55589 | 1405 ft | 0 kts | 186° |
| 2026-02-21 21:49 | 47.46187 | 8.55591 | 1414 ft | 3 kts | 186° |
| 2026-02-21 21:49 | 47.46208 | 8.55594 | 1411 ft | 3 kts | 186° |
| 2026-02-21 21:49 | 47.46223 | 8.55596 | 1413 ft | 3 kts | 190° |
| 2026-02-21 21:50 | 47.46239 | 8.55604 | 1413 ft | 3 kts | 234° |
| 2026-02-21 21:50 | 47.46245 | 8.55629 | 1414 ft | 3 kts | 270° |
| 2026-02-21 21:50 | 47.46244 | 8.55658 | 1411 ft | 2 kts | 276° |
| 2026-02-21 21:50 | 47.46243 | 8.55671 | 1411 ft | 1 kts | 276° |
| 2026-02-21 21:51 | 47.46243 | 8.55672 | 1411 ft | 0 kts | 276° |
| 2026-02-21 21:52 | 47.46244 | 8.55659 | 1411 ft | 4 kts | 276° |
| 2026-02-21 21:53 | 47.46248 | 8.55612 | 1413 ft | 5 kts | 276° |
| 2026-02-21 21:53 | 47.46252 | 8.55550 | 1411 ft | 8 kts | 276° |
| 2026-02-21 21:53 | 47.46260 | 8.55436 | 1402 ft | 14 kts | 276° |
| 2026-02-21 21:53 | 47.46270 | 8.55297 | 1402 ft | 14 kts | 276° |
| 2026-02-21 21:54 | 47.46279 | 8.55164 | 1397 ft | 13 kts | 275° |
| 2026-02-21 21:54 | 47.46288 | 8.55037 | 1395 ft | 12 kts | 276° |
| 2026-02-21 21:54 | 47.46297 | 8.54912 | 1402 ft | 12 kts | 276° |
| 2026-02-21 21:54 | 47.46297 | 8.54809 | 1397 ft | 10 kts | 239° |
| 2026-02-21 21:55 | 47.46232 | 8.54795 | 1403 ft | 10 kts | 162° |
| 2026-02-21 21:55 | 47.46170 | 8.54839 | 1402 ft | 10 kts | 154° |
| 2026-02-21 21:55 | 47.46108 | 8.54883 | 1403 ft | 10 kts | 155° |
| 2026-02-21 21:55 | 47.46045 | 8.54925 | 1403 ft | 10 kts | 155° |
| 2026-02-21 21:56 | 47.45982 | 8.54967 | 1407 ft | 10 kts | 155° |
| 2026-02-21 21:56 | 47.45922 | 8.55009 | 1400 ft | 8 kts | 154° |
| 2026-02-21 21:56 | 47.45912 | 8.55016 | 1407 ft | 0 kts | 154° |
| 2026-02-21 22:00 | 47.45883 | 8.55037 | 1404 ft | 10 kts | 154° |
| 2026-02-21 22:00 | 47.45790 | 8.55102 | 1401 ft | 15 kts | 155° |
| 2026-02-21 22:01 | 47.45709 | 8.55158 | 1410 ft | 10 kts | 155° |
| 2026-02-21 22:01 | 47.45659 | 8.55193 | 1409 ft | 6 kts | 155° |
| 2026-02-21 22:01 | 47.45619 | 8.55220 | 1409 ft | 6 kts | 155° |
| 2026-02-21 22:01 | 47.45580 | 8.55248 | 1409 ft | 6 kts | 155° |
| 2026-02-21 22:02 | 47.45553 | 8.55266 | 1407 ft | 6 kts | 155° |
| 2026-02-21 22:02 | 47.45514 | 8.55293 | 1413 ft | 6 kts | 155° |
| 2026-02-21 22:02 | 47.45474 | 8.55321 | 1412 ft | 6 kts | 155° |
| 2026-02-21 22:02 | 47.45434 | 8.55349 | 1412 ft | 6 kts | 155° |
| 2026-02-21 22:03 | 47.45394 | 8.55376 | 1413 ft | 6 kts | 155° |
| 2026-02-21 22:03 | 47.45355 | 8.55404 | 1413 ft | 6 kts | 155° |
| 2026-02-21 22:03 | 47.45314 | 8.55432 | 1410 ft | 6 kts | 155° |
| 2026-02-21 22:03 | 47.45275 | 8.55459 | 1412 ft | 6 kts | 155° |
| 2026-02-21 22:04 | 47.45235 | 8.55487 | 1415 ft | 6 kts | 155° |
| 2026-02-21 22:04 | 47.45195 | 8.55514 | 1414 ft | 6 kts | 155° |
| 2026-02-21 22:04 | 47.45155 | 8.55541 | 1414 ft | 6 kts | 155° |
| 2026-02-21 22:04 | 47.45115 | 8.55568 | 1413 ft | 6 kts | 155° |
| 2026-02-21 22:05 | 47.45075 | 8.55595 | 1415 ft | 6 kts | 155° |
| 2026-02-21 22:05 | 47.45035 | 8.55622 | 1412 ft | 6 kts | 155° |
| 2026-02-21 22:05 | 47.44995 | 8.55649 | 1412 ft | 6 kts | 155° |
| 2026-02-21 22:05 | 47.44953 | 8.55677 | 1410 ft | 7 kts | 155° |
| 2026-02-21 22:06 | 47.44907 | 8.55709 | 1407 ft | 8 kts | 155° |
| 2026-02-21 22:06 | 47.44858 | 8.55742 | 1410 ft | 8 kts | 155° |
| 2026-02-21 22:06 | 47.44809 | 8.55775 | 1406 ft | 8 kts | 155° |
| 2026-02-21 22:06 | 47.44760 | 8.55808 | 1408 ft | 8 kts | 155° |
| 2026-02-21 22:07 | 47.44717 | 8.55837 | 1409 ft | 5 kts | 155° |
| 2026-02-21 22:07 | 47.44687 | 8.55857 | 1407 ft | 5 kts | 155° |
| 2026-02-21 22:07 | 47.44656 | 8.55868 | 1400 ft | 5 kts | 184° |
| 2026-02-21 22:07 | 47.44629 | 8.55841 | 1409 ft | 5 kts | 228° |
| 2026-02-21 22:08 | 47.44611 | 8.55799 | 1408 ft | 5 kts | 240° |
| 2026-02-21 22:08 | 47.44596 | 8.55755 | 1403 ft | 5 kts | 244° |
| 2026-02-21 22:08 | 47.44582 | 8.55711 | 1409 ft | 5 kts | 244° |
| 2026-02-21 22:08 | 47.44577 | 8.55667 | 1409 ft | 4 kts | 283° |
| 2026-02-21 22:09 | 47.44599 | 8.55638 | 1405 ft | 3 kts | 335° |
| 2026-02-21 22:09 | 47.44600 | 8.55638 | 1405 ft | 0 kts | 335° |
| 2026-02-21 22:10 | 47.44680 | 8.55583 | 1406 ft | 37 kts | 335° |
| 2026-02-21 22:10 | 47.45166 | 8.55249 | 1413 ft | 116 kts | 335° |
| 2026-02-21 22:10 | 47.46136 | 8.54581 | 1405 ft | 190 kts | 335° |
| 2026-02-21 22:11 | 47.47463 | 8.53677 | 1785 ft | 219 kts | 334° |
| 2026-02-21 22:11 | 47.48893 | 8.52723 | 2719 ft | 228 kts | 332° |
| 2026-02-21 22:11 | 47.50299 | 8.51733 | 3938 ft | 215 kts | 328° |
| 2026-02-21 22:11 | 47.51611 | 8.50788 | 4644 ft | 207 kts | 327° |
| 2026-02-21 22:12 | 47.52809 | 8.49684 | 5110 ft | 199 kts | 312° |
| 2026-02-21 22:12 | 47.53642 | 8.48130 | 5500 ft | 192 kts | 292° |
| 2026-02-21 22:12 | 47.54018 | 8.46227 | 5749 ft | 195 kts | 272° |
| 2026-02-21 22:12 | 47.53901 | 8.44219 | 5972 ft | 199 kts | 256° |
| 2026-02-21 22:13 | 47.53392 | 8.42289 | 6344 ft | 202 kts | 246° |
| 2026-02-21 22:13 | 47.52702 | 8.40437 | 6661 ft | 210 kts | 241° |
| 2026-02-21 22:13 | 47.51820 | 8.38655 | 6970 ft | 220 kts | 230° |
| 2026-02-21 22:13 | 47.50567 | 8.37281 | 7299 ft | 232 kts | 208° |
| 2026-02-21 22:14 | 47.48982 | 8.36608 | 7597 ft | 243 kts | 193° |
| 2026-02-21 22:14 | 47.47278 | 8.36262 | 7946 ft | 249 kts | 191° |
| 2026-02-21 22:14 | 47.45521 | 8.35950 | 8265 ft | 259 kts | 189° |
| 2026-02-21 22:14 | 47.43687 | 8.35688 | 8533 ft | 271 kts | 190° |
| 2026-02-21 22:15 | 47.41761 | 8.35294 | 8662 ft | 287 kts | 192° |
| 2026-02-21 22:15 | 47.39796 | 8.34623 | 8892 ft | 292 kts | 210° |